sensor_id;sensor_type;location;lat;lon;timestamp;P1;durP1;ratioP1;P2;durP2;ratioP2
68821;SDS011;55834;50.870;4.606;2023-01-09T00:00:24;1.55;;;0.60;;
68821;SDS011;55834;50.870;4.606;2023-01-09T00:02:50;1.60;;;0.57;;
68821;SDS011;55834;50.870;4.606;2023-01-09T00:05:16;0.93;;;0.60;;
68821;SDS011;55834;50.870;4.606;2023-01-09T00:07:42;0.52;;;0.45;;
68821;SDS011;55834;50.870;4.606;2023-01-09T00:10:08;0.83;;;0.40;;
68821;SDS011;55834;50.870;4.606;2023-01-09T00:12:34;3.83;;;0.82;;
68821;SDS011;55834;50.870;4.606;2023-01-09T00:15:00;1.38;;;0.38;;
68821;SDS011;55834;50.870;4.606;2023-01-09T00:17:25;1.23;;;0.30;;
68821;SDS011;55834;50.870;4.606;2023-01-09T00:19:51;1.10;;;0.47;;
68821;SDS011;55834;50.870;4.606;2023-01-09T00:22:16;0.37;;;0.30;;
68821;SDS011;55834;50.870;4.606;2023-01-09T00:24:41;1.53;;;0.70;;
68821;SDS011;55834;50.870;4.606;2023-01-09T00:27:07;3.33;;;0.60;;
68821;SDS011;55834;50.870;4.606;2023-01-09T00:29:32;2.63;;;0.70;;
68821;SDS011;55834;50.870;4.606;2023-01-09T00:31:58;1.73;;;0.88;;
68821;SDS011;55834;50.870;4.606;2023-01-09T00:34:23;3.20;;;1.13;;
68821;SDS011;55834;50.870;4.606;2023-01-09T00:36:49;1.38;;;0.80;;
68821;SDS011;55834;50.870;4.606;2023-01-09T00:39:19;3.85;;;0.75;;
68821;SDS011;55834;50.870;4.606;2023-01-09T00:41:46;0.88;;;0.63;;
68821;SDS011;55834;50.870;4.606;2023-01-09T00:44:16;1.33;;;1.23;;
68821;SDS011;55834;50.870;4.606;2023-01-09T00:46:50;3.65;;;1.48;;
68821;SDS011;55834;50.870;4.606;2023-01-09T00:49:19;2.45;;;1.13;;
68821;SDS011;55834;50.870;4.606;2023-01-09T00:51:45;1.15;;;0.80;;
68821;SDS011;55834;50.870;4.606;2023-01-09T00:54:12;1.67;;;0.98;;
68821;SDS011;55834;50.870;4.606;2023-01-09T00:56:40;1.48;;;0.60;;
68821;SDS011;55834;50.870;4.606;2023-01-09T00:59:06;2.25;;;0.80;;
68821;SDS011;55834;50.870;4.606;2023-01-09T01:01:31;1.55;;;1.08;;
68821;SDS011;55834;50.870;4.606;2023-01-09T01:03:57;2.60;;;0.50;;
68821;SDS011;55834;50.870;4.606;2023-01-09T01:06:22;4.30;;;0.83;;
68821;SDS011;55834;50.870;4.606;2023-01-09T01:09:06;2.25;;;0.63;;
68821;SDS011;55834;50.870;4.606;2023-01-09T01:11:31;1.27;;;0.43;;
68821;SDS011;55834;50.870;4.606;2023-01-09T01:13:57;1.33;;;1.00;;
68821;SDS011;55834;50.870;4.606;2023-01-09T01:16:23;1.98;;;0.93;;
68821;SDS011;55834;50.870;4.606;2023-01-09T01:18:48;1.65;;;0.50;;
68821;SDS011;55834;50.870;4.606;2023-01-09T01:21:14;4.32;;;1.15;;
68821;SDS011;55834;50.870;4.606;2023-01-09T01:23:40;3.92;;;0.40;;
68821;SDS011;55834;50.870;4.606;2023-01-09T01:26:07;2.75;;;0.40;;
68821;SDS011;55834;50.870;4.606;2023-01-09T01:28:34;2.05;;;0.40;;
68821;SDS011;55834;50.870;4.606;2023-01-09T01:31:00;0.43;;;0.43;;
68821;SDS011;55834;50.870;4.606;2023-01-09T01:33:25;2.10;;;0.50;;
68821;SDS011;55834;50.870;4.606;2023-01-09T01:35:58;2.00;;;0.40;;
68821;SDS011;55834;50.870;4.606;2023-01-09T01:38:24;1.45;;;0.63;;
68821;SDS011;55834;50.870;4.606;2023-01-09T01:40:53;4.23;;;0.77;;
68821;SDS011;55834;50.870;4.606;2023-01-09T01:43:18;3.25;;;0.55;;
68821;SDS011;55834;50.870;4.606;2023-01-09T01:45:43;0.43;;;0.30;;
68821;SDS011;55834;50.870;4.606;2023-01-09T01:48:10;2.87;;;1.00;;
68821;SDS011;55834;50.870;4.606;2023-01-09T01:50:46;1.13;;;0.25;;
68821;SDS011;55834;50.870;4.606;2023-01-09T01:53:15;3.92;;;0.90;;
68821;SDS011;55834;50.870;4.606;2023-01-09T01:56:02;1.95;;;0.40;;
68821;SDS011;55834;50.870;4.606;2023-01-09T01:58:28;3.25;;;0.52;;
68821;SDS011;55834;50.870;4.606;2023-01-09T02:00:54;4.35;;;1.35;;
68821;SDS011;55834;50.870;4.606;2023-01-09T02:03:23;3.17;;;1.45;;
68821;SDS011;55834;50.870;4.606;2023-01-09T02:05:51;2.15;;;1.27;;
68821;SDS011;55834;50.870;4.606;2023-01-09T02:08:16;2.50;;;1.40;;
68821;SDS011;55834;50.870;4.606;2023-01-09T02:10:42;0.65;;;0.38;;
68821;SDS011;55834;50.870;4.606;2023-01-09T02:13:08;1.00;;;0.40;;
68821;SDS011;55834;50.870;4.606;2023-01-09T02:18:17;2.50;;;0.55;;
68821;SDS011;55834;50.870;4.606;2023-01-09T02:29:51;2.85;;;0.50;;
68821;SDS011;55834;50.870;4.606;2023-01-09T02:35:39;2.50;;;0.30;;
68821;SDS011;55834;50.870;4.606;2023-01-09T02:43:33;2.33;;;0.35;;
68821;SDS011;55834;50.870;4.606;2023-01-09T02:45:59;2.73;;;0.90;;
68821;SDS011;55834;50.870;4.606;2023-01-09T02:48:24;2.47;;;0.70;;
68821;SDS011;55834;50.870;4.606;2023-01-09T02:50:54;2.72;;;0.70;;
68821;SDS011;55834;50.870;4.606;2023-01-09T02:59:18;0.65;;;0.30;;
68821;SDS011;55834;50.870;4.606;2023-01-09T03:07:26;1.27;;;0.32;;
68821;SDS011;55834;50.870;4.606;2023-01-09T03:10:00;2.80;;;0.75;;
68821;SDS011;55834;50.870;4.606;2023-01-09T03:12:33;2.88;;;0.95;;
68821;SDS011;55834;50.870;4.606;2023-01-09T03:15:00;4.18;;;1.08;;
68821;SDS011;55834;50.870;4.606;2023-01-09T03:17:34;3.88;;;0.70;;
68821;SDS011;55834;50.870;4.606;2023-01-09T03:20:04;2.42;;;0.60;;
68821;SDS011;55834;50.870;4.606;2023-01-09T03:22:32;2.90;;;0.75;;
68821;SDS011;55834;50.870;4.606;2023-01-09T03:24:59;2.08;;;1.13;;
68821;SDS011;55834;50.870;4.606;2023-01-09T03:27:24;0.87;;;0.70;;
68821;SDS011;55834;50.870;4.606;2023-01-09T03:29:50;2.93;;;0.60;;
68821;SDS011;55834;50.870;4.606;2023-01-09T03:32:17;1.85;;;0.90;;
68821;SDS011;55834;50.870;4.606;2023-01-09T03:34:43;0.95;;;0.75;;
68821;SDS011;55834;50.870;4.606;2023-01-09T03:37:08;1.90;;;0.50;;
68821;SDS011;55834;50.870;4.606;2023-01-09T03:39:34;2.53;;;1.17;;
68821;SDS011;55834;50.870;4.606;2023-01-09T03:41:59;1.65;;;0.75;;
68821;SDS011;55834;50.870;4.606;2023-01-09T03:44:24;2.60;;;0.60;;
68821;SDS011;55834;50.870;4.606;2023-01-09T03:46:50;2.67;;;0.90;;
68821;SDS011;55834;50.870;4.606;2023-01-09T03:49:15;1.77;;;0.90;;
68821;SDS011;55834;50.870;4.606;2023-01-09T03:51:41;1.23;;;0.60;;
68821;SDS011;55834;50.870;4.606;2023-01-09T03:54:07;5.88;;;1.00;;
68821;SDS011;55834;50.870;4.606;2023-01-09T03:56:33;6.00;;;1.52;;
68821;SDS011;55834;50.870;4.606;2023-01-09T03:58:58;2.93;;;0.73;;
68821;SDS011;55834;50.870;4.606;2023-01-09T04:01:23;4.07;;;0.60;;
68821;SDS011;55834;50.870;4.606;2023-01-09T04:03:49;3.67;;;1.33;;
68821;SDS011;55834;50.870;4.606;2023-01-09T04:06:14;8.53;;;1.50;;
68821;SDS011;55834;50.870;4.606;2023-01-09T04:08:39;4.53;;;1.00;;
68821;SDS011;55834;50.870;4.606;2023-01-09T04:11:05;2.40;;;0.60;;
68821;SDS011;55834;50.870;4.606;2023-01-09T04:13:30;3.17;;;0.60;;
68821;SDS011;55834;50.870;4.606;2023-01-09T04:15:56;5.03;;;0.43;;
68821;SDS011;55834;50.870;4.606;2023-01-09T04:18:21;3.17;;;0.88;;
68821;SDS011;55834;50.870;4.606;2023-01-09T04:20:46;3.60;;;1.47;;
68821;SDS011;55834;50.870;4.606;2023-01-09T04:23:12;4.63;;;1.40;;
68821;SDS011;55834;50.870;4.606;2023-01-09T04:25:38;12.75;;;2.15;;
68821;SDS011;55834;50.870;4.606;2023-01-09T04:28:03;5.70;;;1.17;;
68821;SDS011;55834;50.870;4.606;2023-01-09T04:30:28;4.18;;;1.27;;
68821;SDS011;55834;50.870;4.606;2023-01-09T04:32:54;2.72;;;0.57;;
68821;SDS011;55834;50.870;4.606;2023-01-09T04:35:19;4.90;;;1.30;;
68821;SDS011;55834;50.870;4.606;2023-01-09T04:37:45;2.37;;;0.90;;
68821;SDS011;55834;50.870;4.606;2023-01-09T04:40:10;3.30;;;0.80;;
68821;SDS011;55834;50.870;4.606;2023-01-09T04:42:36;3.40;;;1.15;;
68821;SDS011;55834;50.870;4.606;2023-01-09T04:45:03;4.38;;;1.48;;
68821;SDS011;55834;50.870;4.606;2023-01-09T04:47:28;5.95;;;1.23;;
68821;SDS011;55834;50.870;4.606;2023-01-09T04:49:55;7.53;;;2.17;;
68821;SDS011;55834;50.870;4.606;2023-01-09T04:52:21;5.43;;;1.23;;
68821;SDS011;55834;50.870;4.606;2023-01-09T04:54:47;5.78;;;1.13;;
68821;SDS011;55834;50.870;4.606;2023-01-09T04:57:12;6.87;;;1.80;;
68821;SDS011;55834;50.870;4.606;2023-01-09T04:59:38;3.53;;;0.50;;
68821;SDS011;55834;50.870;4.606;2023-01-09T05:02:03;5.00;;;1.20;;
68821;SDS011;55834;50.870;4.606;2023-01-09T05:04:28;2.43;;;0.93;;
68821;SDS011;55834;50.870;4.606;2023-01-09T05:06:53;5.00;;;1.53;;
68821;SDS011;55834;50.870;4.606;2023-01-09T05:09:19;5.07;;;1.77;;
68821;SDS011;55834;50.870;4.606;2023-01-09T05:11:47;2.75;;;0.73;;
68821;SDS011;55834;50.870;4.606;2023-01-09T05:14:13;4.45;;;0.82;;
68821;SDS011;55834;50.870;4.606;2023-01-09T05:16:38;5.13;;;0.70;;
68821;SDS011;55834;50.870;4.606;2023-01-09T05:19:03;2.88;;;0.85;;
68821;SDS011;55834;50.870;4.606;2023-01-09T05:21:29;5.30;;;0.57;;
68821;SDS011;55834;50.870;4.606;2023-01-09T05:23:54;5.07;;;1.13;;
68821;SDS011;55834;50.870;4.606;2023-01-09T05:26:20;3.57;;;1.07;;
68821;SDS011;55834;50.870;4.606;2023-01-09T05:28:48;2.45;;;0.65;;
68821;SDS011;55834;50.870;4.606;2023-01-09T05:31:16;5.82;;;1.33;;
68821;SDS011;55834;50.870;4.606;2023-01-09T05:33:42;4.35;;;0.70;;
68821;SDS011;55834;50.870;4.606;2023-01-09T05:36:07;5.47;;;1.47;;
68821;SDS011;55834;50.870;4.606;2023-01-09T05:38:33;3.58;;;1.27;;
68821;SDS011;55834;50.870;4.606;2023-01-09T05:40:58;2.17;;;0.67;;
68821;SDS011;55834;50.870;4.606;2023-01-09T05:43:23;2.77;;;0.90;;
68821;SDS011;55834;50.870;4.606;2023-01-09T05:45:49;2.33;;;0.80;;
68821;SDS011;55834;50.870;4.606;2023-01-09T05:48:14;3.03;;;0.80;;
68821;SDS011;55834;50.870;4.606;2023-01-09T05:50:39;5.70;;;1.53;;
68821;SDS011;55834;50.870;4.606;2023-01-09T05:53:05;3.70;;;1.50;;
68821;SDS011;55834;50.870;4.606;2023-01-09T05:55:30;1.80;;;0.50;;
68821;SDS011;55834;50.870;4.606;2023-01-09T05:57:56;4.22;;;1.30;;
68821;SDS011;55834;50.870;4.606;2023-01-09T06:00:21;5.43;;;0.77;;
68821;SDS011;55834;50.870;4.606;2023-01-09T06:02:47;6.80;;;0.60;;
68821;SDS011;55834;50.870;4.606;2023-01-09T06:05:12;2.00;;;0.87;;
68821;SDS011;55834;50.870;4.606;2023-01-09T06:07:38;3.43;;;0.50;;
68821;SDS011;55834;50.870;4.606;2023-01-09T06:10:05;3.60;;;0.63;;
68821;SDS011;55834;50.870;4.606;2023-01-09T06:12:35;2.65;;;0.70;;
68821;SDS011;55834;50.870;4.606;2023-01-09T06:15:00;5.93;;;0.87;;
68821;SDS011;55834;50.870;4.606;2023-01-09T06:17:26;2.38;;;0.80;;
68821;SDS011;55834;50.870;4.606;2023-01-09T06:19:55;2.03;;;0.80;;
68821;SDS011;55834;50.870;4.606;2023-01-09T06:22:20;2.88;;;0.75;;
68821;SDS011;55834;50.870;4.606;2023-01-09T06:24:45;2.93;;;0.43;;
68821;SDS011;55834;50.870;4.606;2023-01-09T06:27:11;5.37;;;0.73;;
68821;SDS011;55834;50.870;4.606;2023-01-09T06:29:39;3.97;;;0.90;;
68821;SDS011;55834;50.870;4.606;2023-01-09T06:32:04;1.10;;;0.52;;
68821;SDS011;55834;50.870;4.606;2023-01-09T06:34:30;0.75;;;0.43;;
68821;SDS011;55834;50.870;4.606;2023-01-09T06:36:55;1.85;;;0.30;;
68821;SDS011;55834;50.870;4.606;2023-01-09T06:39:20;1.70;;;0.40;;
68821;SDS011;55834;50.870;4.606;2023-01-09T06:41:46;3.92;;;1.02;;
68821;SDS011;55834;50.870;4.606;2023-01-09T06:44:11;3.90;;;1.23;;
68821;SDS011;55834;50.870;4.606;2023-01-09T06:46:37;3.65;;;0.73;;
68821;SDS011;55834;50.870;4.606;2023-01-09T06:49:02;3.60;;;0.47;;
68821;SDS011;55834;50.870;4.606;2023-01-09T06:51:28;2.38;;;1.20;;
68821;SDS011;55834;50.870;4.606;2023-01-09T06:53:53;3.00;;;1.13;;
68821;SDS011;55834;50.870;4.606;2023-01-09T06:56:19;3.55;;;0.77;;
68821;SDS011;55834;50.870;4.606;2023-01-09T06:58:44;1.43;;;1.23;;
68821;SDS011;55834;50.870;4.606;2023-01-09T07:01:09;0.65;;;0.40;;
68821;SDS011;55834;50.870;4.606;2023-01-09T07:03:35;3.40;;;0.50;;
68821;SDS011;55834;50.870;4.606;2023-01-09T07:06:00;3.25;;;0.40;;
68821;SDS011;55834;50.870;4.606;2023-01-09T07:08:26;3.13;;;0.20;;
68821;SDS011;55834;50.870;4.606;2023-01-09T07:10:51;3.17;;;0.70;;
68821;SDS011;55834;50.870;4.606;2023-01-09T07:13:17;1.92;;;0.60;;
68821;SDS011;55834;50.870;4.606;2023-01-09T07:15:42;1.37;;;0.27;;
68821;SDS011;55834;50.870;4.606;2023-01-09T07:18:07;4.80;;;0.93;;
68821;SDS011;55834;50.870;4.606;2023-01-09T07:20:33;2.97;;;0.70;;
68821;SDS011;55834;50.870;4.606;2023-01-09T07:22:58;7.17;;;0.93;;
68821;SDS011;55834;50.870;4.606;2023-01-09T07:25:23;6.77;;;1.03;;
68821;SDS011;55834;50.870;4.606;2023-01-09T07:27:49;4.33;;;0.47;;
68821;SDS011;55834;50.870;4.606;2023-01-09T07:30:14;2.27;;;0.20;;
68821;SDS011;55834;50.870;4.606;2023-01-09T07:32:40;4.88;;;0.73;;
68821;SDS011;55834;50.870;4.606;2023-01-09T07:35:06;2.10;;;0.40;;
68821;SDS011;55834;50.870;4.606;2023-01-09T07:37:36;0.65;;;0.30;;
68821;SDS011;55834;50.870;4.606;2023-01-09T07:40:02;2.63;;;0.40;;
68821;SDS011;55834;50.870;4.606;2023-01-09T07:42:27;4.10;;;1.02;;
68821;SDS011;55834;50.870;4.606;2023-01-09T07:44:53;4.00;;;0.40;;
68821;SDS011;55834;50.870;4.606;2023-01-09T07:47:19;2.10;;;0.23;;
68821;SDS011;55834;50.870;4.606;2023-01-09T07:49:44;2.55;;;0.65;;
68821;SDS011;55834;50.870;4.606;2023-01-09T07:52:10;3.33;;;0.40;;
68821;SDS011;55834;50.870;4.606;2023-01-09T07:54:35;1.90;;;0.53;;
68821;SDS011;55834;50.870;4.606;2023-01-09T07:57:00;3.53;;;0.57;;
68821;SDS011;55834;50.870;4.606;2023-01-09T07:59:26;2.50;;;0.73;;
68821;SDS011;55834;50.870;4.606;2023-01-09T08:01:53;4.07;;;0.47;;
68821;SDS011;55834;50.870;4.606;2023-01-09T08:04:19;3.88;;;1.80;;
68821;SDS011;55834;50.870;4.606;2023-01-09T08:06:44;3.33;;;0.53;;
68821;SDS011;55834;50.870;4.606;2023-01-09T08:09:10;4.47;;;1.00;;
68821;SDS011;55834;50.870;4.606;2023-01-09T08:11:35;0.60;;;0.53;;
68821;SDS011;55834;50.870;4.606;2023-01-09T08:14:00;2.90;;;1.13;;
68821;SDS011;55834;50.870;4.606;2023-01-09T08:16:26;3.97;;;0.53;;
68821;SDS011;55834;50.870;4.606;2023-01-09T08:18:52;3.70;;;0.70;;
68821;SDS011;55834;50.870;4.606;2023-01-09T08:21:18;3.60;;;0.82;;
68821;SDS011;55834;50.870;4.606;2023-01-09T08:23:43;2.13;;;0.43;;
68821;SDS011;55834;50.870;4.606;2023-01-09T08:26:09;3.20;;;0.60;;
68821;SDS011;55834;50.870;4.606;2023-01-09T08:28:35;4.53;;;1.13;;
68821;SDS011;55834;50.870;4.606;2023-01-09T08:31:02;4.10;;;1.50;;
68821;SDS011;55834;50.870;4.606;2023-01-09T08:33:27;4.45;;;0.60;;
68821;SDS011;55834;50.870;4.606;2023-01-09T08:35:53;2.70;;;0.40;;
68821;SDS011;55834;50.870;4.606;2023-01-09T08:38:18;2.35;;;0.28;;
68821;SDS011;55834;50.870;4.606;2023-01-09T08:40:46;2.25;;;0.30;;
68821;SDS011;55834;50.870;4.606;2023-01-09T08:43:12;1.60;;;0.45;;
68821;SDS011;55834;50.870;4.606;2023-01-09T08:45:56;2.28;;;0.60;;
68821;SDS011;55834;50.870;4.606;2023-01-09T08:48:25;4.57;;;1.42;;
68821;SDS011;55834;50.870;4.606;2023-01-09T08:50:50;1.50;;;0.37;;
68821;SDS011;55834;50.870;4.606;2023-01-09T08:53:18;0.57;;;0.30;;
68821;SDS011;55834;50.870;4.606;2023-01-09T08:55:43;3.37;;;0.93;;
68821;SDS011;55834;50.870;4.606;2023-01-09T08:58:08;1.53;;;0.50;;
68821;SDS011;55834;50.870;4.606;2023-01-09T09:00:34;2.27;;;0.90;;
68821;SDS011;55834;50.870;4.606;2023-01-09T09:02:59;0.40;;;0.20;;
68821;SDS011;55834;50.870;4.606;2023-01-09T09:05:26;0.28;;;0.28;;
68821;SDS011;55834;50.870;4.606;2023-01-09T09:07:52;2.42;;;0.20;;
68821;SDS011;55834;50.870;4.606;2023-01-09T09:10:20;2.78;;;0.35;;
68821;SDS011;55834;50.870;4.606;2023-01-09T09:12:46;2.15;;;0.40;;
68821;SDS011;55834;50.870;4.606;2023-01-09T09:15:12;1.42;;;0.30;;
68821;SDS011;55834;50.870;4.606;2023-01-09T09:17:41;1.60;;;0.70;;
68821;SDS011;55834;50.870;4.606;2023-01-09T09:20:07;0.30;;;0.17;;
68821;SDS011;55834;50.870;4.606;2023-01-09T09:22:33;1.75;;;0.20;;
68821;SDS011;55834;50.870;4.606;2023-01-09T09:24:59;1.90;;;0.85;;
68821;SDS011;55834;50.870;4.606;2023-01-09T09:27:25;0.95;;;0.20;;
68821;SDS011;55834;50.870;4.606;2023-01-09T09:29:51;1.30;;;0.63;;
68821;SDS011;55834;50.870;4.606;2023-01-09T09:32:19;1.52;;;0.20;;
68821;SDS011;55834;50.870;4.606;2023-01-09T09:34:44;0.70;;;0.20;;
68821;SDS011;55834;50.870;4.606;2023-01-09T09:37:09;0.73;;;0.23;;
68821;SDS011;55834;50.870;4.606;2023-01-09T09:39:35;2.30;;;0.40;;
68821;SDS011;55834;50.870;4.606;2023-01-09T09:53:12;1.58;;;0.50;;
68821;SDS011;55834;50.870;4.606;2023-01-09T09:55:58;1.10;;;0.10;;
68821;SDS011;55834;50.870;4.606;2023-01-09T10:01:01;1.60;;;0.20;;
68821;SDS011;55834;50.870;4.606;2023-01-09T10:05:56;0.65;;;0.20;;
68821;SDS011;55834;50.870;4.606;2023-01-09T10:08:28;2.42;;;0.25;;
68821;SDS011;55834;50.870;4.606;2023-01-09T10:11:02;0.73;;;0.73;;
68821;SDS011;55834;50.870;4.606;2023-01-09T10:13:32;2.95;;;0.45;;
68821;SDS011;55834;50.870;4.606;2023-01-09T10:21:52;1.70;;;0.60;;
68821;SDS011;55834;50.870;4.606;2023-01-09T10:26:52;1.27;;;0.40;;
68821;SDS011;55834;50.870;4.606;2023-01-09T10:37:49;1.65;;;0.85;;
68821;SDS011;55834;50.870;4.606;2023-01-09T10:45:21;0.35;;;0.25;;
68821;SDS011;55834;50.870;4.606;2023-01-09T10:50:21;0.88;;;0.20;;
68821;SDS011;55834;50.870;4.606;2023-01-09T10:52:49;0.28;;;0.17;;
68821;SDS011;55834;50.870;4.606;2023-01-09T10:55:17;1.38;;;0.32;;
68821;SDS011;55834;50.870;4.606;2023-01-09T10:57:46;1.35;;;0.10;;
68821;SDS011;55834;50.870;4.606;2023-01-09T11:00:21;1.65;;;0.40;;
68821;SDS011;55834;50.870;4.606;2023-01-09T11:02:48;1.15;;;0.40;;
68821;SDS011;55834;50.870;4.606;2023-01-09T11:05:18;0.63;;;0.63;;
68821;SDS011;55834;50.870;4.606;2023-01-09T11:07:48;3.72;;;1.45;;
68821;SDS011;55834;50.870;4.606;2023-01-09T11:10:20;2.28;;;0.32;;
68821;SDS011;55834;50.870;4.606;2023-01-09T11:12:46;2.65;;;0.77;;
68821;SDS011;55834;50.870;4.606;2023-01-09T11:17:40;1.92;;;0.60;;
68821;SDS011;55834;50.870;4.606;2023-01-09T11:20:14;1.13;;;0.52;;
68821;SDS011;55834;50.870;4.606;2023-01-09T11:22:47;0.40;;;0.40;;
68821;SDS011;55834;50.870;4.606;2023-01-09T11:25:21;4.10;;;0.73;;
68821;SDS011;55834;50.870;4.606;2023-01-09T11:30:25;1.58;;;0.30;;
68821;SDS011;55834;50.870;4.606;2023-01-09T11:32:52;3.80;;;0.98;;
68821;SDS011;55834;50.870;4.606;2023-01-09T11:35:26;3.13;;;1.00;;
68821;SDS011;55834;50.870;4.606;2023-01-09T11:37:58;1.90;;;0.70;;
68821;SDS011;55834;50.870;4.606;2023-01-09T11:40:27;0.85;;;0.65;;
68821;SDS011;55834;50.870;4.606;2023-01-09T11:43:22;2.05;;;0.65;;
68821;SDS011;55834;50.870;4.606;2023-01-09T11:46:03;3.05;;;1.35;;
68821;SDS011;55834;50.870;4.606;2023-01-09T11:51:23;0.90;;;0.52;;
68821;SDS011;55834;50.870;4.606;2023-01-09T11:53:57;2.15;;;0.73;;
68821;SDS011;55834;50.870;4.606;2023-01-09T11:56:24;0.80;;;0.80;;
68821;SDS011;55834;50.870;4.606;2023-01-09T11:58:50;2.83;;;0.80;;
68821;SDS011;55834;50.870;4.606;2023-01-09T12:15:49;3.25;;;1.25;;
68821;SDS011;55834;50.870;4.606;2023-01-09T12:45:43;2.30;;;0.98;;
68821;SDS011;55834;50.870;4.606;2023-01-09T12:53:51;2.20;;;1.20;;
68821;SDS011;55834;50.870;4.606;2023-01-09T12:56:42;2.30;;;1.13;;
68821;SDS011;55834;50.870;4.606;2023-01-09T13:07:47;4.78;;;1.10;;
68821;SDS011;55834;50.870;4.606;2023-01-09T13:10:30;4.60;;;1.10;;
68821;SDS011;55834;50.870;4.606;2023-01-09T13:13:04;3.30;;;1.70;;
68821;SDS011;55834;50.870;4.606;2023-01-09T13:15:43;3.50;;;1.17;;
68821;SDS011;55834;50.870;4.606;2023-01-09T13:20:44;2.97;;;1.13;;
68821;SDS011;55834;50.870;4.606;2023-01-09T13:23:17;5.35;;;1.40;;
68821;SDS011;55834;50.870;4.606;2023-01-09T13:33:52;5.43;;;1.40;;
68821;SDS011;55834;50.870;4.606;2023-01-09T13:36:24;4.47;;;1.42;;
68821;SDS011;55834;50.870;4.606;2023-01-09T13:38:56;3.25;;;1.20;;
68821;SDS011;55834;50.870;4.606;2023-01-09T13:41:24;7.20;;;1.80;;
68821;SDS011;55834;50.870;4.606;2023-01-09T13:44:22;4.22;;;1.30;;
68821;SDS011;55834;50.870;4.606;2023-01-09T13:46:53;4.20;;;1.42;;
68821;SDS011;55834;50.870;4.606;2023-01-09T14:06:03;3.50;;;1.20;;
68821;SDS011;55834;50.870;4.606;2023-01-09T14:08:33;3.25;;;1.60;;
68821;SDS011;55834;50.870;4.606;2023-01-09T14:10:59;3.60;;;2.42;;
68821;SDS011;55834;50.870;4.606;2023-01-09T14:13:37;5.05;;;1.95;;
68821;SDS011;55834;50.870;4.606;2023-01-09T14:16:06;9.13;;;2.17;;
68821;SDS011;55834;50.870;4.606;2023-01-09T14:18:38;6.88;;;1.88;;
68821;SDS011;55834;50.870;4.606;2023-01-09T14:21:14;6.80;;;1.95;;
68821;SDS011;55834;50.870;4.606;2023-01-09T14:24:16;6.45;;;2.33;;
68821;SDS011;55834;50.870;4.606;2023-01-09T14:26:43;5.60;;;2.05;;
68821;SDS011;55834;50.870;4.606;2023-01-09T14:34:45;7.00;;;1.38;;
68821;SDS011;55834;50.870;4.606;2023-01-09T14:37:14;5.22;;;1.65;;
68821;SDS011;55834;50.870;4.606;2023-01-09T14:39:41;6.85;;;2.17;;
68821;SDS011;55834;50.870;4.606;2023-01-09T14:42:08;3.55;;;1.42;;
68821;SDS011;55834;50.870;4.606;2023-01-09T14:53:03;11.70;;;2.25;;
68821;SDS011;55834;50.870;4.606;2023-01-09T15:00:46;5.97;;;1.90;;
68821;SDS011;55834;50.870;4.606;2023-01-09T15:03:17;8.38;;;1.65;;
68821;SDS011;55834;50.870;4.606;2023-01-09T15:05:44;4.70;;;1.20;;
68821;SDS011;55834;50.870;4.606;2023-01-09T15:08:13;4.38;;;1.52;;
68821;SDS011;55834;50.870;4.606;2023-01-09T15:10:42;4.40;;;1.02;;
68821;SDS011;55834;50.870;4.606;2023-01-09T15:13:12;3.53;;;1.52;;
68821;SDS011;55834;50.870;4.606;2023-01-09T15:15:43;10.88;;;1.70;;
68821;SDS011;55834;50.870;4.606;2023-01-09T15:18:16;3.17;;;1.10;;
68821;SDS011;55834;50.870;4.606;2023-01-09T15:20:45;5.88;;;1.65;;
68821;SDS011;55834;50.870;4.606;2023-01-09T15:23:23;3.70;;;1.30;;
68821;SDS011;55834;50.870;4.606;2023-01-09T15:25:53;2.15;;;0.65;;
68821;SDS011;55834;50.870;4.606;2023-01-09T15:31:15;3.03;;;1.00;;
68821;SDS011;55834;50.870;4.606;2023-01-09T15:33:43;3.10;;;1.20;;
68821;SDS011;55834;50.870;4.606;2023-01-09T15:36:12;3.15;;;1.48;;
68821;SDS011;55834;50.870;4.606;2023-01-09T15:38:42;3.05;;;0.55;;
68821;SDS011;55834;50.870;4.606;2023-01-09T15:41:10;2.75;;;0.98;;
68821;SDS011;55834;50.870;4.606;2023-01-09T15:43:59;1.80;;;1.02;;
68821;SDS011;55834;50.870;4.606;2023-01-09T15:46:25;2.50;;;0.70;;
68821;SDS011;55834;50.870;4.606;2023-01-09T15:48:54;3.17;;;0.67;;
68821;SDS011;55834;50.870;4.606;2023-01-09T15:51:19;2.65;;;0.73;;
68821;SDS011;55834;50.870;4.606;2023-01-09T15:53:46;5.28;;;0.90;;
68821;SDS011;55834;50.870;4.606;2023-01-09T15:56:16;2.30;;;1.15;;
68821;SDS011;55834;50.870;4.606;2023-01-09T15:58:51;1.95;;;0.65;;
68821;SDS011;55834;50.870;4.606;2023-01-09T16:06:27;6.87;;;1.40;;
68821;SDS011;55834;50.870;4.606;2023-01-09T16:08:55;6.25;;;1.13;;
68821;SDS011;55834;50.870;4.606;2023-01-09T16:11:37;2.00;;;0.90;;
68821;SDS011;55834;50.870;4.606;2023-01-09T16:14:17;1.27;;;0.45;;
68821;SDS011;55834;50.870;4.606;2023-01-09T16:16:46;4.82;;;1.45;;
68821;SDS011;55834;50.870;4.606;2023-01-09T16:24:46;3.60;;;0.82;;
68821;SDS011;55834;50.870;4.606;2023-01-09T16:29:44;1.85;;;1.52;;
68821;SDS011;55834;50.870;4.606;2023-01-09T16:32:18;5.35;;;1.20;;
68821;SDS011;55834;50.870;4.606;2023-01-09T16:35:05;6.57;;;1.27;;
68821;SDS011;55834;50.870;4.606;2023-01-09T16:37:34;2.88;;;0.75;;
68821;SDS011;55834;50.870;4.606;2023-01-09T16:42:29;4.50;;;1.17;;
68821;SDS011;55834;50.870;4.606;2023-01-09T16:45:13;5.82;;;1.77;;
68821;SDS011;55834;50.870;4.606;2023-01-09T16:47:38;4.63;;;1.55;;
68821;SDS011;55834;50.870;4.606;2023-01-09T16:50:04;7.80;;;1.53;;
68821;SDS011;55834;50.870;4.606;2023-01-09T16:52:30;3.58;;;1.27;;
68821;SDS011;55834;50.870;4.606;2023-01-09T16:54:55;4.30;;;1.43;;
68821;SDS011;55834;50.870;4.606;2023-01-09T16:57:20;1.97;;;0.97;;
68821;SDS011;55834;50.870;4.606;2023-01-09T16:59:46;1.53;;;1.00;;
68821;SDS011;55834;50.870;4.606;2023-01-09T17:02:15;2.45;;;1.10;;
68821;SDS011;55834;50.870;4.606;2023-01-09T17:04:43;2.13;;;1.25;;
68821;SDS011;55834;50.870;4.606;2023-01-09T17:07:12;1.20;;;1.10;;
68821;SDS011;55834;50.870;4.606;2023-01-09T17:09:39;4.38;;;1.58;;
68821;SDS011;55834;50.870;4.606;2023-01-09T17:12:05;4.20;;;0.90;;
68821;SDS011;55834;50.870;4.606;2023-01-09T17:14:30;3.90;;;1.30;;
68821;SDS011;55834;50.870;4.606;2023-01-09T17:16:56;4.77;;;2.23;;
68821;SDS011;55834;50.870;4.606;2023-01-09T17:19:22;2.10;;;1.48;;
68821;SDS011;55834;50.870;4.606;2023-01-09T17:21:47;7.05;;;3.03;;
68821;SDS011;55834;50.870;4.606;2023-01-09T17:24:13;4.30;;;1.53;;
68821;SDS011;55834;50.870;4.606;2023-01-09T17:26:57;2.08;;;1.52;;
68821;SDS011;55834;50.870;4.606;2023-01-09T17:29:43;5.43;;;1.67;;
68821;SDS011;55834;50.870;4.606;2023-01-09T17:32:15;2.97;;;1.75;;
68821;SDS011;55834;50.870;4.606;2023-01-09T17:34:43;2.35;;;1.55;;
68821;SDS011;55834;50.870;4.606;2023-01-09T17:37:15;6.32;;;2.97;;
68821;SDS011;55834;50.870;4.606;2023-01-09T17:39:42;6.00;;;2.13;;
68821;SDS011;55834;50.870;4.606;2023-01-09T17:42:07;6.78;;;2.80;;
68821;SDS011;55834;50.870;4.606;2023-01-09T17:44:33;6.43;;;2.08;;
68821;SDS011;55834;50.870;4.606;2023-01-09T17:46:58;4.95;;;4.45;;
68821;SDS011;55834;50.870;4.606;2023-01-09T17:49:24;3.07;;;1.47;;
68821;SDS011;55834;50.870;4.606;2023-01-09T17:51:51;3.33;;;2.22;;
68821;SDS011;55834;50.870;4.606;2023-01-09T17:54:16;3.20;;;1.48;;
68821;SDS011;55834;50.870;4.606;2023-01-09T17:56:42;2.97;;;1.00;;
68821;SDS011;55834;50.870;4.606;2023-01-09T17:59:11;4.80;;;0.93;;
68821;SDS011;55834;50.870;4.606;2023-01-09T18:01:37;2.60;;;1.60;;
68821;SDS011;55834;50.870;4.606;2023-01-09T18:04:03;4.95;;;2.17;;
68821;SDS011;55834;50.870;4.606;2023-01-09T18:06:28;5.25;;;4.65;;
68821;SDS011;55834;50.870;4.606;2023-01-09T18:08:57;6.32;;;3.95;;
68821;SDS011;55834;50.870;4.606;2023-01-09T18:11:22;4.70;;;3.10;;
68821;SDS011;55834;50.870;4.606;2023-01-09T18:13:48;5.00;;;3.22;;